Terminal Aerodrome Forecast
Issued by NWS Sioux Falls, SD

Home | Current Version | Previous Version | Text Only | Print | Product List | Glossary On
Versions: 1 2 3 4 5 6 7 8 9 10 11 12 13 14 15 16
000
FTUS43 KFSD 261342 AAB
TAFHON
TAF AMD
KHON 261342Z 2614/2712 VRB04KT P6SM BKN009
     FM261530 15006KT P6SM SCT025
     FM270000 12005KT P6SM SKC=

USA.gov is the U.S. government's official web portal to all federal, state and local government web resources and services.